»·PEaware :: N4769F KNUQ-KWJF

N4769F :: KNUQ-KWJF

FLIGHT INFORMATION

Flight Status: Arrived
Operator: Privately registered:
United States
More flights under this callsign
Pilot: Andrew G. (414)
Aircraft: CIRRUS SR-20
(SR20)
More flights by this aircraft type
Origin: KNUQ Moffett Federal AFLD
United States
Destination: KWJF Gen Fox
United States
More flights between these airports :: More routes between these airports
Route: GILRO T333 LKHRN T259 AVE V248 EHF V165 AMONT V197 FISCH
File this flight plan on PilotEdge
Remarks: RMK / SIMBRIEF
Altitude:
(Current/Filed)
13,000ft
Speed:
(Current/Filed)
146kts
Departed: 22-Sep-21 01:51 AM
Arrived: 22-Sep-21 03:35 AM
Distance/Time
Traveled:
246nm/1:44
Distance/Time
To Go:
Arrived

Flight Plot

Page will automatically refresh every two minutes.

Flight plan parsing failed; only flown route is shown


Map Options




Map Legend


Flown Route
Filed Route
Departure Airport
Arrival Airport
Navaid (VOR, NDB)
Fix

Horizontal Profiles

Position Reports

Time Latitude Longitude Heading Altitude Ground
Speed
22-Sep-21 01:37 36.036951 -119.646116 0 187ft 0kts
22-Sep-21 01:38 36.036951 -119.646116 359 187ft 0kts
22-Sep-21 01:40 36.036951 -119.646116 359 187ft 0kts
22-Sep-21 01:41 35.670224 -119.897872 147 594ft 0kts
22-Sep-21 01:41 35.670224 -119.897872 147 594ft 0kts
22-Sep-21 01:42 35.670224 -119.897872 147 594ft 0kts
22-Sep-21 01:43 35.670224 -119.897872 147 594ft 0kts
22-Sep-21 01:44 35.670224 -119.897872 147 594ft 0kts
22-Sep-21 01:46 35.670224 -119.897872 147 594ft 0kts
22-Sep-21 01:46 35.670224 -119.897872 147 594ft 0kts
22-Sep-21 01:47 35.670224 -119.897872 147 594ft 0kts
22-Sep-21 01:48 35.670224 -119.897872 147 594ft 0kts
22-Sep-21 01:49 35.670224 -119.897872 147 594ft 0kts
22-Sep-21 01:50 35.669050 -119.896943 149 596ft 48kts
22-Sep-21 01:51 35.651281 -119.881838 141 1244ft 95kts
22-Sep-21 01:52 35.629378 -119.882103 257 2126ft 100kts
22-Sep-21 01:53 35.638579 -119.913815 284 3004ft 100kts
22-Sep-21 01:54 35.643810 -119.947842 275 3831ft 102kts
22-Sep-21 01:55 35.646642 -119.982656 273 4613ft 103kts
22-Sep-21 01:56 35.648738 -120.018055 272 5346ft 104kts
22-Sep-21 01:57 35.650650 -120.053908 270 6047ft 104kts
22-Sep-21 01:58 35.645813 -120.087045 194 6701ft 102kts
22-Sep-21 01:59 35.631648 -120.061086 102 7302ft 107kts
22-Sep-21 02:00 35.625928 -120.025312 102 7879ft 107kts
22-Sep-21 02:01 35.624862 -119.989691 44 8410ft 113kts
22-Sep-21 02:02 35.655812 -119.978022 13 8887ft 118kts
22-Sep-21 02:03 35.684261 -119.962210 78 9340ft 114kts
22-Sep-21 02:04 35.664029 -119.950477 192 9779ft 102kts
22-Sep-21 02:05 35.654630 -119.976594 281 10259ft 109kts
22-Sep-21 02:06 35.664239 -120.012288 280 10676ft 110kts
22-Sep-21 02:07 35.648749 -120.015936 103 11060ft 107kts
22-Sep-21 02:08 35.644623 -119.979124 102 11433ft 109kts
22-Sep-21 02:09 35.648006 -119.943677 27 11784ft 122kts
22-Sep-21 02:10 35.681390 -119.932716 13 12156ft 124kts
22-Sep-21 02:11 35.682857 -119.905567 152 12488ft 101kts
22-Sep-21 02:12 35.662238 -119.880806 142 12819ft 104kts
22-Sep-21 02:13 35.639429 -119.856309 142 12979ft 118kts
22-Sep-21 02:14 35.627384 -119.836231 120 12975ft 131kts
22-Sep-21 02:15 35.624668 -119.829164 117 12972ft 134kts
22-Sep-21 02:16 35.612741 -119.784360 108 12965ft 140kts
22-Sep-21 02:17 35.603657 -119.738589 107 12960ft 134kts
22-Sep-21 02:18 35.595383 -119.694110 106 12964ft 134kts
22-Sep-21 02:19 35.587136 -119.649246 106 12964ft 135kts
22-Sep-21 02:20 35.578858 -119.604163 106 12963ft 135kts
22-Sep-21 02:21 35.570550 -119.558990 106 12963ft 135kts
22-Sep-21 02:22 35.562250 -119.513955 106 12963ft 135kts
22-Sep-21 02:23 35.553932 -119.468929 106 12964ft 135kts
22-Sep-21 02:24 35.545635 -119.424084 106 12963ft 134kts
22-Sep-21 02:25 35.537312 -119.379214 106 12964ft 134kts
22-Sep-21 02:26 35.528962 -119.334306 106 12963ft 134kts
22-Sep-21 02:27 35.520481 -119.288778 106 12963ft 134kts
22-Sep-21 02:28 35.512086 -119.243837 106 12965ft 134kts
22-Sep-21 02:29 35.503652 -119.198783 106 12968ft 134kts
22-Sep-21 02:30 35.495228 -119.153882 106 12971ft 134kts
22-Sep-21 02:31 35.486678 -119.108456 106 13000ft 132kts
22-Sep-21 02:32 35.463796 -119.073841 139 13009ft 128kts
22-Sep-21 02:33 35.437071 -119.043203 139 13017ft 128kts
22-Sep-21 02:34 35.410290 -119.012689 139 13039ft 127kts
22-Sep-21 02:35 35.379609 -118.993225 165 13065ft 124kts
22-Sep-21 02:36 35.345594 -118.982076 166 13084ft 124kts
22-Sep-21 02:37 35.311306 -118.971122 166 13091ft 125kts
22-Sep-21 02:38 35.277016 -118.960229 166 13098ft 125kts
22-Sep-21 02:39 35.242896 -118.949416 166 13106ft 125kts
22-Sep-21 02:40 35.209088 -118.938711 166 13113ft 125kts
22-Sep-21 02:41 35.174944 -118.927914 165 13120ft 125kts
22-Sep-21 02:42 35.140789 -118.917123 165 13127ft 125kts
22-Sep-21 02:43 35.106914 -118.906430 165 13135ft 125kts
22-Sep-21 02:44 35.073066 -118.895752 165 13142ft 125kts
22-Sep-21 02:45 35.038097 -118.884730 165 13149ft 125kts
22-Sep-21 02:46 35.004127 -118.874035 165 13157ft 125kts
22-Sep-21 02:47 34.970476 -118.863446 165 13164ft 125kts
22-Sep-21 02:48 34.940465 -118.841073 140 13116ft 131kts
22-Sep-21 02:49 34.910360 -118.808496 139 12601ft 150kts
22-Sep-21 03:19 34.897031 -118.793949 139 12356ft 153kts
22-Sep-21 03:20 34.864373 -118.758241 139 11764ft 156kts
22-Sep-21 03:21 34.831826 -118.722656 139 11172ft 158kts
22-Sep-21 03:22 34.798919 -118.686712 139 10577ft 159kts
22-Sep-21 03:23 34.765938 -118.650732 139 9984ft 160kts
22-Sep-21 03:24 34.732477 -118.614275 139 9388ft 162kts
22-Sep-21 03:25 34.698451 -118.577235 139 8789ft 163kts
22-Sep-21 03:26 34.663993 -118.539709 137 8115ft 167kts
22-Sep-21 03:27 34.669425 -118.485403 71 7436ft 168kts
22-Sep-21 03:28 34.684232 -118.429842 70 6018ft 167kts
22-Sep-21 03:29 34.698057 -118.378777 71 4948ft 150kts
22-Sep-21 03:30 34.710541 -118.332314 71 4110ft 140kts
22-Sep-21 03:31 34.721000 -118.293401 71 3460ft 93kts
22-Sep-21 03:32 34.729121 -118.263137 70 2952ft 87kts
22-Sep-21 03:33 34.736359 -118.236223 69 2501ft 80kts
22-Sep-21 03:34 34.740282 -118.218143 139 2342ft 9kts
22-Sep-21 03:35 34.739221 -118.217276 154 2342ft 2kts
22-Sep-21 03:36 34.738848 -118.217498 250 2342ft 0kts
22-Sep-21 03:37 34.738848 -118.217497 250 2342ft 0kts
22-Sep-21 03:38 34.738848 -118.217497 250 2342ft 0kts
22-Sep-21 03:39 34.738848 -118.217497 250 2342ft 0kts
22-Sep-21 03:40 34.738848 -118.217497 250 2342ft 0kts
22-Sep-21 03:41 34.738848 -118.217497 250 2342ft 0kts
22-Sep-21 03:42 34.738848 -118.217497 250 2342ft 0kts
22-Sep-21 03:43 34.738848 -118.217497 250 2342ft 0kts
22-Sep-21 03:44 34.738848 -118.217497 250 2342ft 0kts
22-Sep-21 03:45 34.738848 -118.217497 250 2342ft 0kts

Navigation Log

Ident Type
Flight plan parsing failed, navigation log unavailable